Ana Sayfa
METAR-TAF:

METAR-TAF

Havaalanları :

Los Alamos, New Mexico, Amerika Birleşik Devletleri

Enlem: 35-53N, Boylam: 106-17W, yükseklik: 2179 m

Güncel hava durumu gözlemi

Rapor saat 09:15 UTC de 25 dakika önce yapıldı.
Rüzgar güneydoğudan 4 kt
Sıcaklık 21°C
Nem 38%
Basınç 1022 hPa
Görüş mesafesi: 16.1 km

METAR: KLAM 200915Z AUTO 13004KT 10SM 21/06 A3019 RMK AO2 T02060057

Saat: 03:40 (09:40 UTC)


TAF: eksik

4.000'den fazla havaalanı için hava durumu gözlemleri ve tahminleri (METAR ve TAF raporları).

Kullanılabilir istasyonlar harita üzerinde sarı ve kırmızı noktalarla gösterilir.

İstasyonun adını görmek için fareyi noktanın üzerinde gezdirin.

Sonrasında hava gözlem ve tahminlerini görmek için tıklayın.

Haritayı değiştirmek için: yaklaştırmak için siyah artı işaretli yeşil düğmeye ve uzaklaştırmak için de eksi işaretli düğmeye hızla tıklayın; bitişik haritalar için yeşil okları kullanın.


METAR-TAF: